sensor_id;sensor_type;location;lat;lon;timestamp;P1;durP1;ratioP1;P2;durP2;ratioP2
3274;SDS011;1649;53.672;10.064;2023-06-22T00:01:03;6.50;;;4.17;;
3274;SDS011;1649;53.672;10.064;2023-06-22T00:03:29;8.73;;;4.33;;
3274;SDS011;1649;53.672;10.064;2023-06-22T00:05:54;9.60;;;5.00;;
3274;SDS011;1649;53.672;10.064;2023-06-22T00:08:21;7.83;;;4.90;;
3274;SDS011;1649;53.672;10.064;2023-06-22T00:10:46;8.67;;;3.97;;
3274;SDS011;1649;53.672;10.064;2023-06-22T00:13:12;7.60;;;4.10;;
3274;SDS011;1649;53.672;10.064;2023-06-22T00:15:39;8.63;;;4.47;;
3274;SDS011;1649;53.672;10.064;2023-06-22T00:18:06;8.00;;;4.73;;
3274;SDS011;1649;53.672;10.064;2023-06-22T00:20:32;7.50;;;4.67;;
3274;SDS011;1649;53.672;10.064;2023-06-22T00:22:59;8.60;;;5.13;;
3274;SDS011;1649;53.672;10.064;2023-06-22T00:25:25;6.80;;;4.50;;
3274;SDS011;1649;53.672;10.064;2023-06-22T00:27:51;8.57;;;4.70;;
3274;SDS011;1649;53.672;10.064;2023-06-22T00:30:16;6.97;;;4.20;;
3274;SDS011;1649;53.672;10.064;2023-06-22T00:32:43;8.03;;;5.20;;
3274;SDS011;1649;53.672;10.064;2023-06-22T00:35:09;10.43;;;5.10;;
3274;SDS011;1649;53.672;10.064;2023-06-22T00:37:35;7.00;;;4.50;;
3274;SDS011;1649;53.672;10.064;2023-06-22T00:40:02;7.60;;;4.47;;
3274;SDS011;1649;53.672;10.064;2023-06-22T00:42:29;7.20;;;4.40;;
3274;SDS011;1649;53.672;10.064;2023-06-22T00:44:54;6.60;;;4.27;;
3274;SDS011;1649;53.672;10.064;2023-06-22T00:47:20;9.27;;;5.67;;
3274;SDS011;1649;53.672;10.064;2023-06-22T00:49:47;7.40;;;4.87;;
3274;SDS011;1649;53.672;10.064;2023-06-22T00:52:16;7.30;;;4.63;;
3274;SDS011;1649;53.672;10.064;2023-06-22T00:54:46;8.33;;;4.70;;
3274;SDS011;1649;53.672;10.064;2023-06-22T00:57:15;7.30;;;4.83;;
3274;SDS011;1649;53.672;10.064;2023-06-22T00:59:43;8.13;;;4.70;;
3274;SDS011;1649;53.672;10.064;2023-06-22T01:02:10;7.40;;;4.77;;
3274;SDS011;1649;53.672;10.064;2023-06-22T01:04:36;8.10;;;4.90;;
3274;SDS011;1649;53.672;10.064;2023-06-22T01:07:06;8.93;;;4.73;;
3274;SDS011;1649;53.672;10.064;2023-06-22T01:09:49;8.57;;;4.90;;
3274;SDS011;1649;53.672;10.064;2023-06-22T01:12:24;8.70;;;4.97;;
3274;SDS011;1649;53.672;10.064;2023-06-22T01:15:04;7.93;;;4.90;;
3274;SDS011;1649;53.672;10.064;2023-06-22T01:17:35;8.50;;;5.37;;
3274;SDS011;1649;53.672;10.064;2023-06-22T01:20:03;8.63;;;5.07;;
3274;SDS011;1649;53.672;10.064;2023-06-22T01:22:30;8.13;;;4.60;;
3274;SDS011;1649;53.672;10.064;2023-06-22T01:30:47;8.43;;;4.87;;
3274;SDS011;1649;53.672;10.064;2023-06-22T01:33:28;9.33;;;5.20;;
3274;SDS011;1649;53.672;10.064;2023-06-22T01:35:55;8.07;;;4.97;;
3274;SDS011;1649;53.672;10.064;2023-06-22T01:38:21;7.80;;;5.03;;
3274;SDS011;1649;53.672;10.064;2023-06-22T01:40:47;8.20;;;5.40;;
3274;SDS011;1649;53.672;10.064;2023-06-22T01:43:14;8.10;;;5.10;;
3274;SDS011;1649;53.672;10.064;2023-06-22T01:45:40;7.47;;;4.97;;
3274;SDS011;1649;53.672;10.064;2023-06-22T01:48:06;7.50;;;5.00;;
3274;SDS011;1649;53.672;10.064;2023-06-22T01:50:32;8.13;;;5.40;;
3274;SDS011;1649;53.672;10.064;2023-06-22T01:52:57;8.30;;;5.47;;
3274;SDS011;1649;53.672;10.064;2023-06-22T01:55:23;8.10;;;5.20;;
3274;SDS011;1649;53.672;10.064;2023-06-22T01:57:48;10.90;;;5.87;;
3274;SDS011;1649;53.672;10.064;2023-06-22T02:00:15;7.50;;;5.33;;
3274;SDS011;1649;53.672;10.064;2023-06-22T02:02:52;8.27;;;5.90;;
3274;SDS011;1649;53.672;10.064;2023-06-22T02:05:36;9.20;;;6.00;;
3274;SDS011;1649;53.672;10.064;2023-06-22T02:08:11;9.03;;;6.30;;
3274;SDS011;1649;53.672;10.064;2023-06-22T02:10:41;8.43;;;5.80;;
3274;SDS011;1649;53.672;10.064;2023-06-22T02:13:09;7.70;;;5.53;;
3274;SDS011;1649;53.672;10.064;2023-06-22T02:15:35;9.07;;;5.40;;
3274;SDS011;1649;53.672;10.064;2023-06-22T02:18:01;8.67;;;5.97;;
3274;SDS011;1649;53.672;10.064;2023-06-22T02:20:26;8.50;;;5.80;;
3274;SDS011;1649;53.672;10.064;2023-06-22T02:22:52;12.50;;;5.60;;
3274;SDS011;1649;53.672;10.064;2023-06-22T02:25:17;7.30;;;5.60;;
3274;SDS011;1649;53.672;10.064;2023-06-22T02:27:44;9.37;;;6.50;;
3274;SDS011;1649;53.672;10.064;2023-06-22T02:30:10;7.77;;;5.67;;
3274;SDS011;1649;53.672;10.064;2023-06-22T02:32:36;7.87;;;5.30;;
3274;SDS011;1649;53.672;10.064;2023-06-22T02:35:01;8.77;;;5.77;;
3274;SDS011;1649;53.672;10.064;2023-06-22T02:37:31;8.97;;;6.07;;
3274;SDS011;1649;53.672;10.064;2023-06-22T02:39:57;10.37;;;6.30;;
3274;SDS011;1649;53.672;10.064;2023-06-22T02:42:23;9.17;;;5.97;;
3274;SDS011;1649;53.672;10.064;2023-06-22T02:44:49;7.90;;;5.90;;
3274;SDS011;1649;53.672;10.064;2023-06-22T02:47:15;9.00;;;6.30;;
3274;SDS011;1649;53.672;10.064;2023-06-22T02:49:40;7.90;;;5.73;;
3274;SDS011;1649;53.672;10.064;2023-06-22T02:52:06;7.47;;;5.33;;
3274;SDS011;1649;53.672;10.064;2023-06-22T02:54:32;9.40;;;6.13;;
3274;SDS011;1649;53.672;10.064;2023-06-22T02:56:58;10.20;;;6.93;;
3274;SDS011;1649;53.672;10.064;2023-06-22T02:59:27;9.63;;;6.70;;
3274;SDS011;1649;53.672;10.064;2023-06-22T03:01:53;9.77;;;6.83;;
3274;SDS011;1649;53.672;10.064;2023-06-22T03:04:18;10.47;;;7.33;;
3274;SDS011;1649;53.672;10.064;2023-06-22T03:06:44;10.53;;;7.07;;
3274;SDS011;1649;53.672;10.064;2023-06-22T03:09:15;9.27;;;6.50;;
3274;SDS011;1649;53.672;10.064;2023-06-22T03:11:41;10.20;;;6.73;;
3274;SDS011;1649;53.672;10.064;2023-06-22T03:14:07;9.83;;;6.90;;
3274;SDS011;1649;53.672;10.064;2023-06-22T03:16:32;10.67;;;7.80;;
3274;SDS011;1649;53.672;10.064;2023-06-22T03:18:58;11.70;;;7.03;;
3274;SDS011;1649;53.672;10.064;2023-06-22T03:21:26;9.67;;;6.83;;
3274;SDS011;1649;53.672;10.064;2023-06-22T03:23:53;9.03;;;6.63;;
3274;SDS011;1649;53.672;10.064;2023-06-22T03:26:19;11.47;;;7.60;;
3274;SDS011;1649;53.672;10.064;2023-06-22T03:28:45;10.67;;;7.10;;
3274;SDS011;1649;53.672;10.064;2023-06-22T03:31:11;11.43;;;7.17;;
3274;SDS011;1649;53.672;10.064;2023-06-22T03:33:36;9.70;;;7.43;;
3274;SDS011;1649;53.672;10.064;2023-06-22T03:36:02;8.90;;;6.43;;
3274;SDS011;1649;53.672;10.064;2023-06-22T03:38:27;10.47;;;7.50;;
3274;SDS011;1649;53.672;10.064;2023-06-22T03:40:53;11.67;;;7.27;;
3274;SDS011;1649;53.672;10.064;2023-06-22T03:43:18;10.07;;;7.60;;
3274;SDS011;1649;53.672;10.064;2023-06-22T03:45:44;12.00;;;7.83;;
3274;SDS011;1649;53.672;10.064;2023-06-22T03:48:12;11.73;;;8.53;;
3274;SDS011;1649;53.672;10.064;2023-06-22T03:50:38;10.03;;;7.23;;
3274;SDS011;1649;53.672;10.064;2023-06-22T03:53:03;11.50;;;8.43;;
3274;SDS011;1649;53.672;10.064;2023-06-22T03:55:29;13.07;;;7.00;;
3274;SDS011;1649;53.672;10.064;2023-06-22T03:57:55;10.93;;;7.67;;
3274;SDS011;1649;53.672;10.064;2023-06-22T04:00:22;11.77;;;8.70;;
3274;SDS011;1649;53.672;10.064;2023-06-22T04:02:48;12.40;;;7.03;;
3274;SDS011;1649;53.672;10.064;2023-06-22T04:05:13;12.33;;;8.20;;
3274;SDS011;1649;53.672;10.064;2023-06-22T04:07:39;10.30;;;7.50;;
3274;SDS011;1649;53.672;10.064;2023-06-22T04:10:04;11.50;;;7.90;;
3274;SDS011;1649;53.672;10.064;2023-06-22T04:12:30;11.30;;;7.07;;
3274;SDS011;1649;53.672;10.064;2023-06-22T04:14:56;10.97;;;7.80;;
3274;SDS011;1649;53.672;10.064;2023-06-22T04:17:21;14.20;;;9.23;;
3274;SDS011;1649;53.672;10.064;2023-06-22T04:19:49;13.73;;;9.67;;
3274;SDS011;1649;53.672;10.064;2023-06-22T04:22:15;11.80;;;8.70;;
3274;SDS011;1649;53.672;10.064;2023-06-22T04:24:41;13.83;;;9.13;;
3274;SDS011;1649;53.672;10.064;2023-06-22T04:27:06;11.23;;;7.73;;
3274;SDS011;1649;53.672;10.064;2023-06-22T04:29:32;11.07;;;8.10;;
3274;SDS011;1649;53.672;10.064;2023-06-22T04:31:58;11.20;;;8.30;;
3274;SDS011;1649;53.672;10.064;2023-06-22T04:34:27;11.33;;;7.73;;
3274;SDS011;1649;53.672;10.064;2023-06-22T04:36:54;13.83;;;8.60;;
3274;SDS011;1649;53.672;10.064;2023-06-22T04:39:19;11.93;;;7.80;;
3274;SDS011;1649;53.672;10.064;2023-06-22T04:41:45;12.10;;;7.90;;
3274;SDS011;1649;53.672;10.064;2023-06-22T04:44:15;13.20;;;8.27;;
3274;SDS011;1649;53.672;10.064;2023-06-22T04:46:55;12.73;;;7.93;;
3274;SDS011;1649;53.672;10.064;2023-06-22T04:49:33;9.97;;;7.63;;
3274;SDS011;1649;53.672;10.064;2023-06-22T04:52:05;16.97;;;8.73;;
3274;SDS011;1649;53.672;10.064;2023-06-22T04:54:32;14.03;;;9.00;;
3274;SDS011;1649;53.672;10.064;2023-06-22T04:57:02;12.00;;;7.43;;
3274;SDS011;1649;53.672;10.064;2023-06-22T04:59:30;13.17;;;8.03;;
3274;SDS011;1649;53.672;10.064;2023-06-22T05:02:00;13.23;;;7.97;;
3274;SDS011;1649;53.672;10.064;2023-06-22T05:04:28;12.73;;;8.43;;
3274;SDS011;1649;53.672;10.064;2023-06-22T05:06:56;11.47;;;7.17;;
3274;SDS011;1649;53.672;10.064;2023-06-22T05:09:22;12.13;;;7.93;;
3274;SDS011;1649;53.672;10.064;2023-06-22T05:11:49;12.20;;;7.97;;
3274;SDS011;1649;53.672;10.064;2023-06-22T05:14:15;11.53;;;8.30;;
3274;SDS011;1649;53.672;10.064;2023-06-22T05:16:41;12.77;;;7.80;;
3274;SDS011;1649;53.672;10.064;2023-06-22T05:19:07;11.37;;;7.63;;
3274;SDS011;1649;53.672;10.064;2023-06-22T05:21:33;12.03;;;7.60;;
3274;SDS011;1649;53.672;10.064;2023-06-22T05:23:59;11.70;;;8.43;;
3274;SDS011;1649;53.672;10.064;2023-06-22T05:26:27;11.20;;;6.90;;
3274;SDS011;1649;53.672;10.064;2023-06-22T05:28:52;12.13;;;7.80;;
3274;SDS011;1649;53.672;10.064;2023-06-22T05:31:18;11.70;;;7.80;;
3274;SDS011;1649;53.672;10.064;2023-06-22T05:33:47;10.47;;;7.13;;
3274;SDS011;1649;53.672;10.064;2023-06-22T05:36:14;11.20;;;7.93;;
3274;SDS011;1649;53.672;10.064;2023-06-22T05:38:40;10.90;;;7.57;;
3274;SDS011;1649;53.672;10.064;2023-06-22T05:41:07;10.97;;;7.40;;
3274;SDS011;1649;53.672;10.064;2023-06-22T05:43:32;10.10;;;6.80;;
3274;SDS011;1649;53.672;10.064;2023-06-22T05:45:59;11.00;;;6.33;;
3274;SDS011;1649;53.672;10.064;2023-06-22T05:48:25;8.43;;;5.60;;
3274;SDS011;1649;53.672;10.064;2023-06-22T05:50:52;8.50;;;5.23;;
3274;SDS011;1649;53.672;10.064;2023-06-22T05:53:17;9.50;;;5.03;;
3274;SDS011;1649;53.672;10.064;2023-06-22T05:55:43;9.73;;;4.87;;
3274;SDS011;1649;53.672;10.064;2023-06-22T05:58:09;8.37;;;5.20;;
3274;SDS011;1649;53.672;10.064;2023-06-22T06:00:34;7.67;;;4.83;;
3274;SDS011;1649;53.672;10.064;2023-06-22T06:03:00;8.27;;;4.33;;
3274;SDS011;1649;53.672;10.064;2023-06-22T06:05:34;7.80;;;4.23;;
3274;SDS011;1649;53.672;10.064;2023-06-22T06:08:01;6.27;;;3.77;;
3274;SDS011;1649;53.672;10.064;2023-06-22T06:10:30;7.87;;;4.03;;
3274;SDS011;1649;53.672;10.064;2023-06-22T06:12:56;8.30;;;4.20;;
3274;SDS011;1649;53.672;10.064;2023-06-22T06:15:22;6.83;;;3.87;;
3274;SDS011;1649;53.672;10.064;2023-06-22T06:17:51;7.70;;;4.63;;
3274;SDS011;1649;53.672;10.064;2023-06-22T06:20:18;6.77;;;3.73;;
3274;SDS011;1649;53.672;10.064;2023-06-22T06:22:46;6.40;;;3.97;;
3274;SDS011;1649;53.672;10.064;2023-06-22T06:25:11;15.77;;;4.37;;
3274;SDS011;1649;53.672;10.064;2023-06-22T06:27:44;6.70;;;3.37;;
3274;SDS011;1649;53.672;10.064;2023-06-22T06:30:14;8.10;;;3.50;;
3274;SDS011;1649;53.672;10.064;2023-06-22T06:32:41;6.43;;;3.53;;
3274;SDS011;1649;53.672;10.064;2023-06-22T06:35:08;7.20;;;4.00;;
3274;SDS011;1649;53.672;10.064;2023-06-22T06:37:38;5.97;;;3.30;;
3274;SDS011;1649;53.672;10.064;2023-06-22T06:40:09;7.00;;;3.27;;
3274;SDS011;1649;53.672;10.064;2023-06-22T06:42:40;6.70;;;3.50;;
3274;SDS011;1649;53.672;10.064;2023-06-22T06:45:15;6.23;;;3.30;;
3274;SDS011;1649;53.672;10.064;2023-06-22T06:47:42;7.30;;;3.60;;
3274;SDS011;1649;53.672;10.064;2023-06-22T06:50:07;6.83;;;3.03;;
3274;SDS011;1649;53.672;10.064;2023-06-22T06:52:34;6.90;;;3.40;;
3274;SDS011;1649;53.672;10.064;2023-06-22T06:55:00;6.70;;;3.80;;
3274;SDS011;1649;53.672;10.064;2023-06-22T06:57:26;7.07;;;3.70;;
3274;SDS011;1649;53.672;10.064;2023-06-22T06:59:55;6.33;;;3.20;;
3274;SDS011;1649;53.672;10.064;2023-06-22T07:02:21;7.80;;;4.00;;
3274;SDS011;1649;53.672;10.064;2023-06-22T07:04:47;6.30;;;3.60;;
3274;SDS011;1649;53.672;10.064;2023-06-22T07:07:13;7.50;;;3.27;;
3274;SDS011;1649;53.672;10.064;2023-06-22T07:09:39;6.00;;;3.40;;
3274;SDS011;1649;53.672;10.064;2023-06-22T07:12:05;7.03;;;3.53;;
3274;SDS011;1649;53.672;10.064;2023-06-22T07:14:31;7.00;;;4.00;;
3274;SDS011;1649;53.672;10.064;2023-06-22T07:16:56;5.43;;;3.03;;
3274;SDS011;1649;53.672;10.064;2023-06-22T07:19:26;8.00;;;4.10;;
3274;SDS011;1649;53.672;10.064;2023-06-22T07:21:52;5.40;;;3.17;;
3274;SDS011;1649;53.672;10.064;2023-06-22T07:24:19;7.27;;;3.27;;
3274;SDS011;1649;53.672;10.064;2023-06-22T07:26:49;6.70;;;3.30;;
3274;SDS011;1649;53.672;10.064;2023-06-22T07:29:16;9.83;;;3.50;;
3274;SDS011;1649;53.672;10.064;2023-06-22T07:31:42;6.63;;;3.67;;
3274;SDS011;1649;53.672;10.064;2023-06-22T07:34:08;5.60;;;3.50;;
3274;SDS011;1649;53.672;10.064;2023-06-22T07:36:34;5.63;;;3.60;;
3274;SDS011;1649;53.672;10.064;2023-06-22T07:39:00;5.73;;;3.20;;
3274;SDS011;1649;53.672;10.064;2023-06-22T07:41:27;6.13;;;3.27;;
3274;SDS011;1649;53.672;10.064;2023-06-22T07:43:53;5.90;;;3.53;;
3274;SDS011;1649;53.672;10.064;2023-06-22T07:46:19;6.93;;;3.20;;
3274;SDS011;1649;53.672;10.064;2023-06-22T07:48:44;6.00;;;3.27;;
3274;SDS011;1649;53.672;10.064;2023-06-22T07:51:10;6.90;;;3.10;;
3274;SDS011;1649;53.672;10.064;2023-06-22T07:53:39;7.63;;;3.60;;
3274;SDS011;1649;53.672;10.064;2023-06-22T07:56:05;5.77;;;3.47;;
3274;SDS011;1649;53.672;10.064;2023-06-22T07:58:32;8.17;;;3.70;;
3274;SDS011;1649;53.672;10.064;2023-06-22T08:00:58;5.20;;;3.10;;
3274;SDS011;1649;53.672;10.064;2023-06-22T08:03:24;8.00;;;3.30;;
3274;SDS011;1649;53.672;10.064;2023-06-22T08:05:49;6.77;;;3.37;;
3274;SDS011;1649;53.672;10.064;2023-06-22T08:08:15;6.47;;;3.40;;
3274;SDS011;1649;53.672;10.064;2023-06-22T08:10:41;6.17;;;3.70;;
3274;SDS011;1649;53.672;10.064;2023-06-22T08:13:07;5.70;;;3.23;;
3274;SDS011;1649;53.672;10.064;2023-06-22T08:15:33;5.27;;;2.90;;
3274;SDS011;1649;53.672;10.064;2023-06-22T08:17:58;4.90;;;2.93;;
3274;SDS011;1649;53.672;10.064;2023-06-22T08:20:25;5.73;;;3.30;;
3274;SDS011;1649;53.672;10.064;2023-06-22T08:22:51;5.47;;;3.20;;
3274;SDS011;1649;53.672;10.064;2023-06-22T08:25:19;7.90;;;3.33;;
3274;SDS011;1649;53.672;10.064;2023-06-22T08:27:46;5.60;;;2.97;;
3274;SDS011;1649;53.672;10.064;2023-06-22T08:30:15;5.93;;;3.60;;
3274;SDS011;1649;53.672;10.064;2023-06-22T08:32:42;7.60;;;3.17;;
3274;SDS011;1649;53.672;10.064;2023-06-22T08:35:07;7.37;;;3.07;;
3274;SDS011;1649;53.672;10.064;2023-06-22T08:37:33;5.63;;;2.90;;
3274;SDS011;1649;53.672;10.064;2023-06-22T08:40:00;5.97;;;2.70;;
3274;SDS011;1649;53.672;10.064;2023-06-22T08:42:29;7.03;;;2.80;;
3274;SDS011;1649;53.672;10.064;2023-06-22T08:44:55;5.50;;;3.17;;
3274;SDS011;1649;53.672;10.064;2023-06-22T08:47:20;5.90;;;2.87;;
3274;SDS011;1649;53.672;10.064;2023-06-22T08:49:46;8.40;;;3.07;;
3274;SDS011;1649;53.672;10.064;2023-06-22T08:52:12;5.50;;;2.90;;
3274;SDS011;1649;53.672;10.064;2023-06-22T08:54:37;4.93;;;2.80;;
3274;SDS011;1649;53.672;10.064;2023-06-22T08:57:03;4.73;;;2.73;;
3274;SDS011;1649;53.672;10.064;2023-06-22T08:59:29;4.87;;;2.50;;
3274;SDS011;1649;53.672;10.064;2023-06-22T09:01:54;5.77;;;3.03;;
3274;SDS011;1649;53.672;10.064;2023-06-22T09:04:20;5.37;;;2.77;;
3274;SDS011;1649;53.672;10.064;2023-06-22T09:06:48;4.70;;;2.43;;
3274;SDS011;1649;53.672;10.064;2023-06-22T09:09:15;4.30;;;2.20;;
3274;SDS011;1649;53.672;10.064;2023-06-22T09:11:41;5.47;;;2.10;;
3274;SDS011;1649;53.672;10.064;2023-06-22T09:14:07;4.10;;;1.83;;
3274;SDS011;1649;53.672;10.064;2023-06-22T09:16:33;4.77;;;2.10;;
3274;SDS011;1649;53.672;10.064;2023-06-22T09:18:59;6.20;;;2.07;;
3274;SDS011;1649;53.672;10.064;2023-06-22T09:21:24;4.20;;;2.10;;
3274;SDS011;1649;53.672;10.064;2023-06-22T09:23:50;4.93;;;2.60;;
3274;SDS011;1649;53.672;10.064;2023-06-22T09:26:19;4.70;;;2.47;;
3274;SDS011;1649;53.672;10.064;2023-06-22T09:28:45;4.63;;;2.50;;
3274;SDS011;1649;53.672;10.064;2023-06-22T09:31:12;5.07;;;2.60;;
3274;SDS011;1649;53.672;10.064;2023-06-22T09:33:37;6.20;;;2.53;;
3274;SDS011;1649;53.672;10.064;2023-06-22T09:36:05;5.40;;;2.50;;
3274;SDS011;1649;53.672;10.064;2023-06-22T09:38:34;5.60;;;2.50;;
3274;SDS011;1649;53.672;10.064;2023-06-22T09:41:03;4.70;;;2.30;;
3274;SDS011;1649;53.672;10.064;2023-06-22T09:43:29;4.63;;;2.43;;
3274;SDS011;1649;53.672;10.064;2023-06-22T09:45:56;6.83;;;2.70;;
3274;SDS011;1649;53.672;10.064;2023-06-22T09:48:22;5.23;;;2.50;;
3274;SDS011;1649;53.672;10.064;2023-06-22T09:50:47;6.93;;;3.10;;
3274;SDS011;1649;53.672;10.064;2023-06-22T09:53:13;5.10;;;2.83;;
3274;SDS011;1649;53.672;10.064;2023-06-22T09:55:39;4.30;;;2.57;;
3274;SDS011;1649;53.672;10.064;2023-06-22T09:58:04;6.30;;;2.80;;
3274;SDS011;1649;53.672;10.064;2023-06-22T10:00:30;5.53;;;2.50;;
3274;SDS011;1649;53.672;10.064;2023-06-22T10:02:55;4.40;;;2.80;;
3274;SDS011;1649;53.672;10.064;2023-06-22T10:05:21;6.30;;;3.00;;
3274;SDS011;1649;53.672;10.064;2023-06-22T10:07:47;4.90;;;2.70;;
3274;SDS011;1649;53.672;10.064;2023-06-22T10:10:12;4.83;;;2.93;;
3274;SDS011;1649;53.672;10.064;2023-06-22T10:12:43;4.97;;;3.00;;
3274;SDS011;1649;53.672;10.064;2023-06-22T10:15:13;6.73;;;3.80;;
3274;SDS011;1649;53.672;10.064;2023-06-22T10:17:39;6.37;;;3.60;;
3274;SDS011;1649;53.672;10.064;2023-06-22T10:20:05;5.67;;;3.60;;
3274;SDS011;1649;53.672;10.064;2023-06-22T10:22:37;5.10;;;3.20;;
3274;SDS011;1649;53.672;10.064;2023-06-22T10:25:07;6.03;;;2.93;;
3274;SDS011;1649;53.672;10.064;2023-06-22T10:27:33;5.60;;;3.50;;
3274;SDS011;1649;53.672;10.064;2023-06-22T10:29:59;5.97;;;3.17;;
3274;SDS011;1649;53.672;10.064;2023-06-22T10:32:25;5.13;;;3.20;;
3274;SDS011;1649;53.672;10.064;2023-06-22T10:34:50;6.60;;;3.57;;
3274;SDS011;1649;53.672;10.064;2023-06-22T10:37:16;7.00;;;3.10;;
3274;SDS011;1649;53.672;10.064;2023-06-22T10:39:41;5.07;;;3.30;;
3274;SDS011;1649;53.672;10.064;2023-06-22T10:42:07;5.27;;;3.30;;
3274;SDS011;1649;53.672;10.064;2023-06-22T10:44:33;5.40;;;3.07;;
3274;SDS011;1649;53.672;10.064;2023-06-22T10:46:58;6.20;;;3.33;;
3274;SDS011;1649;53.672;10.064;2023-06-22T10:49:24;4.80;;;2.93;;
3274;SDS011;1649;53.672;10.064;2023-06-22T10:51:49;6.97;;;3.70;;
3274;SDS011;1649;53.672;10.064;2023-06-22T10:54:15;4.63;;;2.80;;
3274;SDS011;1649;53.672;10.064;2023-06-22T10:56:43;8.00;;;3.37;;
3274;SDS011;1649;53.672;10.064;2023-06-22T10:59:08;6.33;;;3.33;;
3274;SDS011;1649;53.672;10.064;2023-06-22T11:01:34;7.30;;;3.30;;
3274;SDS011;1649;53.672;10.064;2023-06-22T11:03:59;5.70;;;3.30;;
3274;SDS011;1649;53.672;10.064;2023-06-22T11:06:25;6.17;;;3.63;;
3274;SDS011;1649;53.672;10.064;2023-06-22T11:08:50;5.03;;;3.47;;
3274;SDS011;1649;53.672;10.064;2023-06-22T11:11:16;5.23;;;3.23;;
3274;SDS011;1649;53.672;10.064;2023-06-22T11:13:42;6.93;;;3.60;;
3274;SDS011;1649;53.672;10.064;2023-06-22T11:16:08;6.20;;;3.97;;
3274;SDS011;1649;53.672;10.064;2023-06-22T11:18:34;7.03;;;3.97;;
3274;SDS011;1649;53.672;10.064;2023-06-22T11:21:00;5.27;;;3.70;;
3274;SDS011;1649;53.672;10.064;2023-06-22T11:23:25;5.47;;;3.70;;
3274;SDS011;1649;53.672;10.064;2023-06-22T11:25:52;4.93;;;3.13;;
3274;SDS011;1649;53.672;10.064;2023-06-22T11:28:18;5.80;;;3.93;;
3274;SDS011;1649;53.672;10.064;2023-06-22T11:30:44;5.60;;;3.43;;
3274;SDS011;1649;53.672;10.064;2023-06-22T11:33:09;6.27;;;4.20;;
3274;SDS011;1649;53.672;10.064;2023-06-22T11:35:35;6.03;;;4.00;;
3274;SDS011;1649;53.672;10.064;2023-06-22T11:38:00;5.83;;;4.00;;
3274;SDS011;1649;53.672;10.064;2023-06-22T11:40:26;6.10;;;3.80;;
3274;SDS011;1649;53.672;10.064;2023-06-22T11:42:51;5.53;;;3.57;;
3274;SDS011;1649;53.672;10.064;2023-06-22T11:45:17;5.47;;;3.63;;
3274;SDS011;1649;53.672;10.064;2023-06-22T11:47:43;5.77;;;3.77;;
3274;SDS011;1649;53.672;10.064;2023-06-22T11:50:09;6.20;;;4.00;;
3274;SDS011;1649;53.672;10.064;2023-06-22T11:52:35;6.50;;;4.80;;
3274;SDS011;1649;53.672;10.064;2023-06-22T11:55:01;6.40;;;4.43;;
3274;SDS011;1649;53.672;10.064;2023-06-22T11:57:28;6.73;;;4.20;;
3274;SDS011;1649;53.672;10.064;2023-06-22T11:59:54;6.33;;;3.90;;
3274;SDS011;1649;53.672;10.064;2023-06-22T12:02:20;8.47;;;4.93;;
3274;SDS011;1649;53.672;10.064;2023-06-22T12:04:45;6.23;;;4.73;;
3274;SDS011;1649;53.672;10.064;2023-06-22T12:07:11;6.23;;;4.50;;
3274;SDS011;1649;53.672;10.064;2023-06-22T12:09:36;8.10;;;4.50;;
3274;SDS011;1649;53.672;10.064;2023-06-22T12:12:02;7.03;;;4.53;;
3274;SDS011;1649;53.672;10.064;2023-06-22T12:14:28;7.83;;;4.67;;
3274;SDS011;1649;53.672;10.064;2023-06-22T12:16:53;6.53;;;4.43;;
3274;SDS011;1649;53.672;10.064;2023-06-22T12:19:19;6.50;;;4.30;;
3274;SDS011;1649;53.672;10.064;2023-06-22T12:21:44;7.50;;;4.90;;
3274;SDS011;1649;53.672;10.064;2023-06-22T12:24:10;6.10;;;4.40;;
3274;SDS011;1649;53.672;10.064;2023-06-22T12:26:36;7.37;;;4.40;;
3274;SDS011;1649;53.672;10.064;2023-06-22T12:29:01;6.80;;;4.40;;
3274;SDS011;1649;53.672;10.064;2023-06-22T12:31:27;6.20;;;4.70;;
3274;SDS011;1649;53.672;10.064;2023-06-22T12:33:53;7.30;;;4.90;;
3274;SDS011;1649;53.672;10.064;2023-06-22T12:36:18;6.60;;;4.93;;
3274;SDS011;1649;53.672;10.064;2023-06-22T12:38:43;6.10;;;4.23;;
3274;SDS011;1649;53.672;10.064;2023-06-22T12:41:09;8.10;;;5.10;;
3274;SDS011;1649;53.672;10.064;2023-06-22T12:43:35;5.90;;;4.60;;
3274;SDS011;1649;53.672;10.064;2023-06-22T12:46:00;7.03;;;5.23;;
3274;SDS011;1649;53.672;10.064;2023-06-22T12:48:26;6.83;;;4.63;;
3274;SDS011;1649;53.672;10.064;2023-06-22T12:50:52;6.97;;;4.70;;
3274;SDS011;1649;53.672;10.064;2023-06-22T12:53:18;7.67;;;5.63;;
3274;SDS011;1649;53.672;10.064;2023-06-22T12:55:43;7.10;;;5.23;;
3274;SDS011;1649;53.672;10.064;2023-06-22T12:58:09;7.87;;;5.40;;
3274;SDS011;1649;53.672;10.064;2023-06-22T13:00:35;5.90;;;4.63;;
3274;SDS011;1649;53.672;10.064;2023-06-22T13:03:00;7.40;;;5.70;;
3274;SDS011;1649;53.672;10.064;2023-06-22T13:05:26;7.23;;;5.00;;
3274;SDS011;1649;53.672;10.064;2023-06-22T13:07:51;7.77;;;4.77;;
3274;SDS011;1649;53.672;10.064;2023-06-22T13:10:17;12.30;;;6.67;;
3274;SDS011;1649;53.672;10.064;2023-06-22T13:12:42;7.10;;;5.63;;
3274;SDS011;1649;53.672;10.064;2023-06-22T13:15:08;7.67;;;5.07;;
3274;SDS011;1649;53.672;10.064;2023-06-22T13:17:34;7.40;;;5.57;;
3274;SDS011;1649;53.672;10.064;2023-06-22T13:19:59;7.40;;;4.90;;
3274;SDS011;1649;53.672;10.064;2023-06-22T13:22:31;7.07;;;5.13;;
3274;SDS011;1649;53.672;10.064;2023-06-22T13:24:57;9.17;;;5.20;;
3274;SDS011;1649;53.672;10.064;2023-06-22T13:27:24;7.30;;;5.30;;
3274;SDS011;1649;53.672;10.064;2023-06-22T13:29:50;6.67;;;5.30;;
3274;SDS011;1649;53.672;10.064;2023-06-22T13:32:16;6.90;;;5.50;;
3274;SDS011;1649;53.672;10.064;2023-06-22T13:34:42;8.10;;;5.50;;
3274;SDS011;1649;53.672;10.064;2023-06-22T13:37:08;7.17;;;5.07;;
3274;SDS011;1649;53.672;10.064;2023-06-22T13:39:33;7.10;;;5.90;;
3274;SDS011;1649;53.672;10.064;2023-06-22T13:41:59;7.63;;;6.30;;
3274;SDS011;1649;53.672;10.064;2023-06-22T13:44:24;6.83;;;5.27;;
3274;SDS011;1649;53.672;10.064;2023-06-22T13:46:53;6.77;;;5.37;;
3274;SDS011;1649;53.672;10.064;2023-06-22T13:49:22;7.50;;;5.80;;
3274;SDS011;1649;53.672;10.064;2023-06-22T13:51:47;6.23;;;5.00;;
3274;SDS011;1649;53.672;10.064;2023-06-22T13:54:14;7.10;;;5.57;;
3274;SDS011;1649;53.672;10.064;2023-06-22T13:56:39;7.33;;;5.43;;
3274;SDS011;1649;53.672;10.064;2023-06-22T13:59:05;7.37;;;5.03;;
3274;SDS011;1649;53.672;10.064;2023-06-22T14:01:34;8.53;;;5.77;;
3274;SDS011;1649;53.672;10.064;2023-06-22T14:03:59;9.10;;;5.80;;
3274;SDS011;1649;53.672;10.064;2023-06-22T14:06:27;7.70;;;5.67;;
3274;SDS011;1649;53.672;10.064;2023-06-22T14:08:52;7.87;;;5.60;;
3274;SDS011;1649;53.672;10.064;2023-06-22T14:11:18;10.03;;;5.90;;
3274;SDS011;1649;53.672;10.064;2023-06-22T14:13:43;7.97;;;5.67;;
3274;SDS011;1649;53.672;10.064;2023-06-22T14:16:09;7.43;;;5.40;;
3274;SDS011;1649;53.672;10.064;2023-06-22T14:18:35;8.67;;;5.63;;
3274;SDS011;1649;53.672;10.064;2023-06-22T14:21:00;10.63;;;5.57;;
3274;SDS011;1649;53.672;10.064;2023-06-22T14:23:26;11.63;;;5.83;;
3274;SDS011;1649;53.672;10.064;2023-06-22T14:25:52;6.97;;;5.10;;
3274;SDS011;1649;53.672;10.064;2023-06-22T14:28:18;7.77;;;6.33;;
3274;SDS011;1649;53.672;10.064;2023-06-22T14:30:43;10.30;;;5.40;;
3274;SDS011;1649;53.672;10.064;2023-06-22T14:33:09;6.80;;;5.30;;
3274;SDS011;1649;53.672;10.064;2023-06-22T14:35:35;7.33;;;5.53;;
3274;SDS011;1649;53.672;10.064;2023-06-22T14:38:00;7.33;;;5.50;;
3274;SDS011;1649;53.672;10.064;2023-06-22T14:40:26;6.80;;;5.30;;
3274;SDS011;1649;53.672;10.064;2023-06-22T14:42:51;7.93;;;5.27;;
3274;SDS011;1649;53.672;10.064;2023-06-22T14:45:17;8.10;;;6.00;;
3274;SDS011;1649;53.672;10.064;2023-06-22T14:47:42;6.67;;;5.30;;
3274;SDS011;1649;53.672;10.064;2023-06-22T14:50:08;7.90;;;5.47;;
3274;SDS011;1649;53.672;10.064;2023-06-22T14:52:33;7.07;;;5.10;;
3274;SDS011;1649;53.672;10.064;2023-06-22T14:54:59;10.60;;;6.13;;
3274;SDS011;1649;53.672;10.064;2023-06-22T14:57:24;7.60;;;5.90;;
3274;SDS011;1649;53.672;10.064;2023-06-22T14:59:50;7.47;;;5.60;;